Quick Links (Output Below):   Max & Min Temps   /   Climate Reports   /   Zone Forecasts
River Forecasts   /   Forestry Forecasts   /   Aviation Forecasts   /   Radars   /   Features

Terminal Aerodrome Forecast (El Dorado)

Pick a Site:
Arkadelphia | El Dorado | Fayetteville | Fort Smith | Harrison | Highfill | Hot Springs | Jonesboro
Little Rock | Monticello | Mountain Home | Pine Bluff | Texarkana
 Forecast 

KELD 022327Z 0300/0324 VRB03KT P6SM SCT060 SCT140 BKN250
      TEMPO 0308/0312 3SM BR
     FM031200 00000KT 5SM BR SCT040 BKN100 BKN250
     FM031400 VRB04KT P6SM SCT040 BKN100 BKN250
     FM031800 15005KT P6SM SCT050 SCT100 SCT250=


 Latest METARs (Observations) 
How to Decode METARs
10Z KELD 030953Z AUTO 00000KT 7SM CLR 20/19 A2999 RMK AO2 SLP152
         T02000194
         
09Z KELD 030853Z AUTO 00000KT 8SM CLR 21/19 A2999 RMK AO2 SLP152
         T02060194 53001
         
08Z KELD 030753Z AUTO 00000KT 7SM CLR 21/20 A2998 RMK AO2 SLP150
         T02110200
         
07Z KELD 030653Z AUTO 05004KT 9SM CLR 21/19 A2998 RMK AO2 SLP148
         T02110194
         
06Z KELD 030553Z AUTO 00000KT 9SM CLR 22/20 A2999 RMK AO2 SLP151
         T02170200 10283 20217 403500206 58002
         
05Z KELD 030453Z AUTO 00000KT 10SM CLR 22/20 A2999 RMK AO2 SLP153
         T02220200
         
04Z KELD 030353Z AUTO 00000KT 10SM CLR 23/21 A3000 RMK AO2 SLP153
         T02280206
         
03Z KELD 030253Z AUTO 00000KT 10SM CLR 23/21 A2999 RMK AO2 SLP153
         T02280206 53001
         
02Z KELD 030153Z AUTO 00000KT 10SM CLR 24/21 A2999 RMK AO2 SLP151
         T02390206
         
01Z KELD 030053Z AUTO 05004KT 10SM CLR 26/20 A2998 RMK AO2 SLP149
         T02560200
         
***** Today's Observations (Above) *****


Back to Main Page
http://www.srh.noaa.gov/lzk/qfcst.php

USA.gov is the U.S. government's official web portal to all federal, state and local government web resources and services.